Aviation Digital Data Service (ADDS)

Output produced by METARs form (0339 UTC 26 April 2019)
found at http://www.aviationweather.gov/metar/data/
 
METAR text: RCKH 260330Z 24010KT 220V290 9999 FEW016 SCT030 BKN150 30/23 Q1011 NOSIG RMK A2988
Conditions at: RCKH (KAOHSIUNG INTL , TW) observed 0330 UTC 26 April 2019
Temperature: 30.0°C (86°F)
Dewpoint: 23.0°C (73°F) [RH = 66%]
Pressure (altimeter): 29.85 inches Hg (1011.0 mb)
Winds: from the WSW (240 degrees) at 12 MPH (10 knots; 5.1 m/s)
Visibility: 6 or more miles (10+ km)
Ceiling: 15000 feet AGL
Clouds: few clouds at 1600 feet AGL
scattered clouds at 3000 feet AGL
broken clouds at 15000 feet AGL
Weather: no significant weather observed at this time

METAR text: RCKH 260300Z 25009KT 9999 FEW016 SCT030 BKN150 30/24 Q1012 NOSIG RMK A2989
Conditions at: RCKH (KAOHSIUNG INTL , TW) observed 0300 UTC 26 April 2019
Temperature: 30.0°C (86°F)
Dewpoint: 24.0°C (75°F) [RH = 70%]
Pressure (altimeter): 29.88 inches Hg (1012.0 mb)
Winds: from the WSW (250 degrees) at 10 MPH (9 knots; 4.6 m/s)
Visibility: 6 or more miles (10+ km)
Ceiling: 15000 feet AGL
Clouds: few clouds at 1600 feet AGL
scattered clouds at 3000 feet AGL
broken clouds at 15000 feet AGL
Weather: no significant weather observed at this time

METAR text: RCKH 260230Z 22007KT 170V270 9999 FEW016 SCT030 31/23 Q1012 NOSIG RMK A2989
Conditions at: RCKH (KAOHSIUNG INTL , TW) observed 0230 UTC 26 April 2019
Temperature: 31.0°C (88°F)
Dewpoint: 23.0°C (73°F) [RH = 63%]
Pressure (altimeter): 29.88 inches Hg (1012.0 mb)
Winds: from the SW (220 degrees) at 8 MPH (7 knots; 3.6 m/s)
Visibility: 6 or more miles (10+ km)
Ceiling: at least 12,000 feet AGL
Clouds: few clouds at 1600 feet AGL
scattered clouds at 3000 feet AGL
Weather: no significant weather observed at this time

METAR text: RCKH 260200Z 20006KT 160V250 9999 FEW016 SCT200 30/23 Q1012 NOSIG RMK A2989
Conditions at: RCKH (KAOHSIUNG INTL , TW) observed 0200 UTC 26 April 2019
Temperature: 30.0°C (86°F)
Dewpoint: 23.0°C (73°F) [RH = 66%]
Pressure (altimeter): 29.88 inches Hg (1012.0 mb)
Winds: from the SSW (200 degrees) at 7 MPH (6 knots; 3.1 m/s)
Visibility: 6 or more miles (10+ km)
Ceiling: at least 12,000 feet AGL
Clouds: few clouds at 1600 feet AGL
scattered clouds at 20000 feet AGL
Weather: no significant weather observed at this time

METAR text: RCKH 260137Z VRB01KT 9999 FEW016 SCT200 32/21 Q1012 NOSIG RMK A2989
Conditions at: RCKH (KAOHSIUNG INTL , TW) observed 0137 UTC 26 April 2019
Temperature: 32.0°C (90°F)
Dewpoint: 21.0°C (70°F) [RH = 52%]
Pressure (altimeter): 29.88 inches Hg (1012.0 mb)
Winds: variable direction winds at 1 MPH (1 knots; 0.5 m/s)
Visibility: 6 or more miles (10+ km)
Ceiling: at least 12,000 feet AGL
Clouds: few clouds at 1600 feet AGL
scattered clouds at 20000 feet AGL
Weather: no significant weather observed at this time

METAR text: RCKH 260130Z VRB03KT 9999 FEW016 SCT200 30/21 Q1011 NOSIG RMK A2988
Conditions at: RCKH (KAOHSIUNG INTL , TW) observed 0130 UTC 26 April 2019
Temperature: 30.0°C (86°F)
Dewpoint: 21.0°C (70°F) [RH = 59%]
Pressure (altimeter): 29.85 inches Hg (1011.0 mb)
Winds: variable direction winds at 3 MPH (3 knots; 1.5 m/s)
Visibility: 6 or more miles (10+ km)
Ceiling: at least 12,000 feet AGL
Clouds: few clouds at 1600 feet AGL
scattered clouds at 20000 feet AGL
Weather: no significant weather observed at this time

METAR text: RCKH 260100Z 08003KT 340V140 9999 FEW016 SCT200 30/21 Q1012 NOSIG RMK A2989
Conditions at: RCKH (KAOHSIUNG INTL , TW) observed 0100 UTC 26 April 2019
Temperature: 30.0°C (86°F)
Dewpoint: 21.0°C (70°F) [RH = 59%]
Pressure (altimeter): 29.88 inches Hg (1012.0 mb)
Winds: from the E (80 degrees) at 3 MPH (3 knots; 1.5 m/s)
Visibility: 6 or more miles (10+ km)
Ceiling: at least 12,000 feet AGL
Clouds: few clouds at 1600 feet AGL
scattered clouds at 20000 feet AGL
Weather: no significant weather observed at this time

METAR text: RCKH 260030Z 05004KT 020V090 9999 FEW016 SCT200 28/21 Q1012 NOSIG RMK A2989
Conditions at: RCKH (KAOHSIUNG INTL , TW) observed 0030 UTC 26 April 2019
Temperature: 28.0°C (82°F)
Dewpoint: 21.0°C (70°F) [RH = 66%]
Pressure (altimeter): 29.88 inches Hg (1012.0 mb)
Winds: from the NE (50 degrees) at 5 MPH (4 knots; 2.1 m/s)
Visibility: 6 or more miles (10+ km)
Ceiling: at least 12,000 feet AGL
Clouds: few clouds at 1600 feet AGL
scattered clouds at 20000 feet AGL
Weather: no significant weather observed at this time

METAR text: RCKH 260000Z 07006KT 040V100 9999 FEW016 SCT200 28/20 Q1011 NOSIG RMK A2988
Conditions at: RCKH (KAOHSIUNG INTL , TW) observed 0000 UTC 26 April 2019
Temperature: 28.0°C (82°F)
Dewpoint: 20.0°C (68°F) [RH = 62%]
Pressure (altimeter): 29.85 inches Hg (1011.0 mb)
Winds: from the ENE (70 degrees) at 7 MPH (6 knots; 3.1 m/s)
Visibility: 6 or more miles (10+ km)
Ceiling: at least 12,000 feet AGL
Clouds: few clouds at 1600 feet AGL
scattered clouds at 20000 feet AGL
Weather: no significant weather observed at this time

METAR text: RCKH 252330Z 08004KT 050V110 9999 FEW016 SCT200 27/19 Q1011 NOSIG RMK A2988
Conditions at: RCKH (KAOHSIUNG INTL , TW) observed 2330 UTC 25 April 2019
Temperature: 27.0°C (81°F)
Dewpoint: 19.0°C (66°F) [RH = 62%]
Pressure (altimeter): 29.85 inches Hg (1011.0 mb)
Winds: from the E (80 degrees) at 5 MPH (4 knots; 2.1 m/s)
Visibility: 6 or more miles (10+ km)
Ceiling: at least 12,000 feet AGL
Clouds: few clouds at 1600 feet AGL
scattered clouds at 20000 feet AGL
Weather: no significant weather observed at this time

METAR text: RCKH 252300Z 07005KT 030V110 9999 FEW015 SCT070 26/20 Q1011 NOSIG RMK A2988
Conditions at: RCKH (KAOHSIUNG INTL , TW) observed 2300 UTC 25 April 2019
Temperature: 26.0°C (79°F)
Dewpoint: 20.0°C (68°F) [RH = 70%]
Pressure (altimeter): 29.85 inches Hg (1011.0 mb)
Winds: from the ENE (70 degrees) at 6 MPH (5 knots; 2.6 m/s)
Visibility: 6 or more miles (10+ km)
Ceiling: at least 12,000 feet AGL
Clouds: few clouds at 1500 feet AGL
scattered clouds at 7000 feet AGL
Weather: no significant weather observed at this time

METAR text: RCKH 252230Z 09007KT 9999 FEW015 SCT070 25/22 Q1011 NOSIG RMK A2986
Conditions at: RCKH (KAOHSIUNG INTL , TW) observed 2230 UTC 25 April 2019
Temperature: 25.0°C (77°F)
Dewpoint: 22.0°C (72°F) [RH = 83%]
Pressure (altimeter): 29.85 inches Hg (1011.0 mb)
Winds: from the E (90 degrees) at 8 MPH (7 knots; 3.6 m/s)
Visibility: 6 or more miles (10+ km)
Ceiling: at least 12,000 feet AGL
Clouds: few clouds at 1500 feet AGL
scattered clouds at 7000 feet AGL
Weather: no significant weather observed at this time

METAR text: RCKH 252200Z 09007KT 9999 FEW014 SCT030 24/21 Q1010 NOSIG RMK A2985
Conditions at: RCKH (KAOHSIUNG INTL , TW) observed 2200 UTC 25 April 2019
Temperature: 24.0°C (75°F)
Dewpoint: 21.0°C (70°F) [RH = 83%]
Pressure (altimeter): 29.82 inches Hg (1010.0 mb)
Winds: from the E (90 degrees) at 8 MPH (7 knots; 3.6 m/s)
Visibility: 6 or more miles (10+ km)
Ceiling: at least 12,000 feet AGL
Clouds: few clouds at 1400 feet AGL
scattered clouds at 3000 feet AGL
Weather: no significant weather observed at this time

METAR text: RCKH 252100Z 10003KT 9999 FEW014 SCT030 BKN050 25/22 Q1010 NOSIG RMK A2983
Conditions at: RCKH (KAOHSIUNG INTL , TW) observed 2100 UTC 25 April 2019
Temperature: 25.0°C (77°F)
Dewpoint: 22.0°C (72°F) [RH = 83%]
Pressure (altimeter): 29.82 inches Hg (1010.0 mb)
Winds: from the E (100 degrees) at 3 MPH (3 knots; 1.5 m/s)
Visibility: 6 or more miles (10+ km)
Ceiling: 5000 feet AGL
Clouds: few clouds at 1400 feet AGL
scattered clouds at 3000 feet AGL
broken clouds at 5000 feet AGL
Weather: no significant weather observed at this time

METAR text: RCKH 252000Z 08002KT 9999 FEW014 BKN032 BKN050 26/22 Q1009 NOSIG RMK A2982
Conditions at: RCKH (KAOHSIUNG INTL , TW) observed 2000 UTC 25 April 2019
Temperature: 26.0°C (79°F)
Dewpoint: 22.0°C (72°F) [RH = 79%]
Pressure (altimeter): 29.79 inches Hg (1009.0 mb)
Winds: from the E (80 degrees) at 2 MPH (2 knots; 1.0 m/s)
Visibility: 6 or more miles (10+ km)
Ceiling: 3200 feet AGL
Clouds: few clouds at 1400 feet AGL
broken clouds at 3200 feet AGL
broken clouds at 5000 feet AGL
Weather: no significant weather observed at this time

METAR text: RCKH 251900Z 08004KT 9999 FEW014 BKN027 BKN042 26/21 Q1009 NOSIG RMK A2982
Conditions at: RCKH (KAOHSIUNG INTL , TW) observed 1900 UTC 25 April 2019
Temperature: 26.0°C (79°F)
Dewpoint: 21.0°C (70°F) [RH = 74%]
Pressure (altimeter): 29.79 inches Hg (1009.0 mb)
Winds: from the E (80 degrees) at 5 MPH (4 knots; 2.1 m/s)
Visibility: 6 or more miles (10+ km)
Ceiling: 2700 feet AGL
Clouds: few clouds at 1400 feet AGL
broken clouds at 2700 feet AGL
broken clouds at 4200 feet AGL
Weather: no significant weather observed at this time

METAR text: RCKH 251800Z 08005KT 9999 FEW017 25/22 Q1009 NOSIG RMK A2982
Conditions at: RCKH (KAOHSIUNG INTL , TW) observed 1800 UTC 25 April 2019
Temperature: 25.0°C (77°F)
Dewpoint: 22.0°C (72°F) [RH = 83%]
Pressure (altimeter): 29.79 inches Hg (1009.0 mb)
Winds: from the E (80 degrees) at 6 MPH (5 knots; 2.6 m/s)
Visibility: 6 or more miles (10+ km)
Ceiling: at least 12,000 feet AGL
Clouds: few clouds at 1700 feet AGL
Weather: no significant weather observed at this time

METAR text: RCKH 251700Z 31003KT 240V350 9999 FEW017 27/22 Q1009 NOSIG RMK A2982
Conditions at: RCKH (KAOHSIUNG INTL , TW) observed 1700 UTC 25 April 2019
Temperature: 27.0°C (81°F)
Dewpoint: 22.0°C (72°F) [RH = 74%]
Pressure (altimeter): 29.79 inches Hg (1009.0 mb)
Winds: from the NW (310 degrees) at 3 MPH (3 knots; 1.5 m/s)
Visibility: 6 or more miles (10+ km)
Ceiling: at least 12,000 feet AGL
Clouds: few clouds at 1700 feet AGL
Weather: no significant weather observed at this time

METAR text: RCKH 251600Z 30003KT 9999 FEW017 28/21 Q1010 NOSIG RMK A2983
Conditions at: RCKH (KAOHSIUNG INTL , TW) observed 1600 UTC 25 April 2019
Temperature: 28.0°C (82°F)
Dewpoint: 21.0°C (70°F) [RH = 66%]
Pressure (altimeter): 29.82 inches Hg (1010.0 mb)
Winds: from the WNW (300 degrees) at 3 MPH (3 knots; 1.5 m/s)
Visibility: 6 or more miles (10+ km)
Ceiling: at least 12,000 feet AGL
Clouds: few clouds at 1700 feet AGL
Weather: no significant weather observed at this time

METAR text: RCKH 251530Z 31004KT 9999 FEW016 28/21 Q1010 NOSIG RMK A2983
Conditions at: RCKH (KAOHSIUNG INTL , TW) observed 1530 UTC 25 April 2019
Temperature: 28.0°C (82°F)
Dewpoint: 21.0°C (70°F) [RH = 66%]
Pressure (altimeter): 29.82 inches Hg (1010.0 mb)
Winds: from the NW (310 degrees) at 5 MPH (4 knots; 2.1 m/s)
Visibility: 6 or more miles (10+ km)
Ceiling: at least 12,000 feet AGL
Clouds: few clouds at 1600 feet AGL
Weather: no significant weather observed at this time

METAR text: RCKH 251500Z VRB02KT 9999 FEW016 28/20 Q1010 NOSIG RMK A2984
Conditions at: RCKH (KAOHSIUNG INTL , TW) observed 1500 UTC 25 April 2019
Temperature: 28.0°C (82°F)
Dewpoint: 20.0°C (68°F) [RH = 62%]
Pressure (altimeter): 29.82 inches Hg (1010.0 mb)
Winds: variable direction winds at 2 MPH (2 knots; 1.0 m/s)
Visibility: 6 or more miles (10+ km)
Ceiling: at least 12,000 feet AGL
Clouds: few clouds at 1600 feet AGL
Weather: no significant weather observed at this time

METAR text: RCKH 251430Z 30004KT 270V350 9999 FEW016 28/20 Q1010 NOSIG RMK A2984
Conditions at: RCKH (KAOHSIUNG INTL , TW) observed 1430 UTC 25 April 2019
Temperature: 28.0°C (82°F)
Dewpoint: 20.0°C (68°F) [RH = 62%]
Pressure (altimeter): 29.82 inches Hg (1010.0 mb)
Winds: from the WNW (300 degrees) at 5 MPH (4 knots; 2.1 m/s)
Visibility: 6 or more miles (10+ km)
Ceiling: at least 12,000 feet AGL
Clouds: few clouds at 1600 feet AGL
Weather: no significant weather observed at this time

METAR text: RCKH 251400Z 31003KT 280V340 9999 FEW016 28/20 Q1010 NOSIG RMK A2985
Conditions at: RCKH (KAOHSIUNG INTL , TW) observed 1400 UTC 25 April 2019
Temperature: 28.0°C (82°F)
Dewpoint: 20.0°C (68°F) [RH = 62%]
Pressure (altimeter): 29.82 inches Hg (1010.0 mb)
Winds: from the NW (310 degrees) at 3 MPH (3 knots; 1.5 m/s)
Visibility: 6 or more miles (10+ km)
Ceiling: at least 12,000 feet AGL
Clouds: few clouds at 1600 feet AGL
Weather: no significant weather observed at this time

METAR text: RCKH 251330Z 32004KT 270V020 9999 FEW016 28/20 Q1010 NOSIG RMK A2985
Conditions at: RCKH (KAOHSIUNG INTL , TW) observed 1330 UTC 25 April 2019
Temperature: 28.0°C (82°F)
Dewpoint: 20.0°C (68°F) [RH = 62%]
Pressure (altimeter): 29.82 inches Hg (1010.0 mb)
Winds: from the NW (320 degrees) at 5 MPH (4 knots; 2.1 m/s)
Visibility: 6 or more miles (10+ km)
Ceiling: at least 12,000 feet AGL
Clouds: few clouds at 1600 feet AGL
Weather: no significant weather observed at this time

METAR text: RCKH 251300Z VRB02KT 9999 FEW016 28/20 Q1010 NOSIG RMK A2985
Conditions at: RCKH (KAOHSIUNG INTL , TW) observed 1300 UTC 25 April 2019
Temperature: 28.0°C (82°F)
Dewpoint: 20.0°C (68°F) [RH = 62%]
Pressure (altimeter): 29.82 inches Hg (1010.0 mb)
Winds: variable direction winds at 2 MPH (2 knots; 1.0 m/s)
Visibility: 6 or more miles (10+ km)
Ceiling: at least 12,000 feet AGL
Clouds: few clouds at 1600 feet AGL
Weather: no significant weather observed at this time

METAR text: RCKH 251230Z 01003KT 330V060 9999 FEW016 29/21 Q1010 NOSIG RMK A2984
Conditions at: RCKH (KAOHSIUNG INTL , TW) observed 1230 UTC 25 April 2019
Temperature: 29.0°C (84°F)
Dewpoint: 21.0°C (70°F) [RH = 62%]
Pressure (altimeter): 29.82 inches Hg (1010.0 mb)
Winds: from the N (10 degrees) at 3 MPH (3 knots; 1.5 m/s)
Visibility: 6 or more miles (10+ km)
Ceiling: at least 12,000 feet AGL
Clouds: few clouds at 1600 feet AGL
Weather: no significant weather observed at this time

METAR text: RCKH 251200Z 35005KT 9999 FEW018 SCT200 29/21 Q1010 NOSIG RMK A2984
Conditions at: RCKH (KAOHSIUNG INTL , TW) observed 1200 UTC 25 April 2019
Temperature: 29.0°C (84°F)
Dewpoint: 21.0°C (70°F) [RH = 62%]
Pressure (altimeter): 29.82 inches Hg (1010.0 mb)
Winds: from the N (350 degrees) at 6 MPH (5 knots; 2.6 m/s)
Visibility: 6 or more miles (10+ km)
Ceiling: at least 12,000 feet AGL
Clouds: few clouds at 1800 feet AGL
scattered clouds at 20000 feet AGL
Weather: no significant weather observed at this time

METAR text: RCKH 251130Z 35007KT 330V040 9999 FEW018 SCT200 29/21 Q1010 NOSIG RMK A2984
Conditions at: RCKH (KAOHSIUNG INTL , TW) observed 1130 UTC 25 April 2019
Temperature: 29.0°C (84°F)
Dewpoint: 21.0°C (70°F) [RH = 62%]
Pressure (altimeter): 29.82 inches Hg (1010.0 mb)
Winds: from the N (350 degrees) at 8 MPH (7 knots; 3.6 m/s)
Visibility: 6 or more miles (10+ km)
Ceiling: at least 12,000 feet AGL
Clouds: few clouds at 1800 feet AGL
scattered clouds at 20000 feet AGL
Weather: no significant weather observed at this time

METAR text: RCKH 251100Z VRB07G18KT 9999 FEW018 SCT200 29/21 Q1010 NOSIG RMK A2983
Conditions at: RCKH (KAOHSIUNG INTL , TW) observed 1100 UTC 25 April 2019
Temperature: 29.0°C (84°F)
Dewpoint: 21.0°C (70°F) [RH = 62%]
Pressure (altimeter): 29.82 inches Hg (1010.0 mb)
Winds: variable direction winds at 8 MPH (7 knots; 3.6 m/s)
gusting to 21 MPH (18 knots; 9.3 m/s)
Visibility: 6 or more miles (10+ km)
Ceiling: at least 12,000 feet AGL
Clouds: few clouds at 1800 feet AGL
scattered clouds at 20000 feet AGL
Weather: no significant weather observed at this time

METAR text: RCKH 251030Z 33010KT 300V360 9999 FEW018 SCT200 29/21 Q1010 NOSIG RMK A2983
Conditions at: RCKH (KAOHSIUNG INTL , TW) observed 1030 UTC 25 April 2019
Temperature: 29.0°C (84°F)
Dewpoint: 21.0°C (70°F) [RH = 62%]
Pressure (altimeter): 29.82 inches Hg (1010.0 mb)
Winds: from the NNW (330 degrees) at 12 MPH (10 knots; 5.1 m/s)
Visibility: 6 or more miles (10+ km)
Ceiling: at least 12,000 feet AGL
Clouds: few clouds at 1800 feet AGL
scattered clouds at 20000 feet AGL
Weather: no significant weather observed at this time

METAR text: RCKH 251000Z 32010KT 280V360 9999 FEW018 29/20 Q1009 NOSIG RMK 33011KT/R09 A2980
Conditions at: RCKH (KAOHSIUNG INTL , TW) observed 1000 UTC 25 April 2019
Temperature: 29.0°C (84°F)
Dewpoint: 20.0°C (68°F) [RH = 58%]
Pressure (altimeter): 29.79 inches Hg (1009.0 mb)
Winds: from the NW (320 degrees) at 12 MPH (10 knots; 5.1 m/s)
Visibility: 6 or more miles (10+ km)
Ceiling: at least 12,000 feet AGL
Clouds: few clouds at 1800 feet AGL
Weather: no significant weather observed at this time

METAR text: RCKH 250930Z 31010KT 290V350 9999 FEW018 30/20 Q1009 NOSIG RMK 33011KT/R09 A2980
Conditions at: RCKH (KAOHSIUNG INTL , TW) observed 0930 UTC 25 April 2019
Temperature: 30.0°C (86°F)
Dewpoint: 20.0°C (68°F) [RH = 55%]
Pressure (altimeter): 29.79 inches Hg (1009.0 mb)
Winds: from the NW (310 degrees) at 12 MPH (10 knots; 5.1 m/s)
Visibility: 6 or more miles (10+ km)
Ceiling: at least 12,000 feet AGL
Clouds: few clouds at 1800 feet AGL
Weather: no significant weather observed at this time

METAR text: RCKH 250900Z 32011KT 290V360 9999 FEW018 30/20 Q1009 NOSIG RMK 33011KT/R09 A2980
Conditions at: RCKH (KAOHSIUNG INTL , TW) observed 0900 UTC 25 April 2019
Temperature: 30.0°C (86°F)
Dewpoint: 20.0°C (68°F) [RH = 55%]
Pressure (altimeter): 29.79 inches Hg (1009.0 mb)
Winds: from the NW (320 degrees) at 13 MPH (11 knots; 5.7 m/s)
Visibility: 6 or more miles (10+ km)
Ceiling: at least 12,000 feet AGL
Clouds: few clouds at 1800 feet AGL
Weather: no significant weather observed at this time

METAR text: RCKH 250830Z 32012KT 290V350 9999 FEW018 30/20 Q1009 NOSIG RMK 31013KT/R09 A2980
Conditions at: RCKH (KAOHSIUNG INTL , TW) observed 0830 UTC 25 April 2019
Temperature: 30.0°C (86°F)
Dewpoint: 20.0°C (68°F) [RH = 55%]
Pressure (altimeter): 29.79 inches Hg (1009.0 mb)
Winds: from the NW (320 degrees) at 14 MPH (12 knots; 6.2 m/s)
Visibility: 6 or more miles (10+ km)
Ceiling: at least 12,000 feet AGL
Clouds: few clouds at 1800 feet AGL
Weather: no significant weather observed at this time

METAR text: RCKH 250806Z 32011KT 290V360 9999 FEW018 31/20 Q1008 NOSIG RMK 33011KT/R09 A2979
Conditions at: RCKH (KAOHSIUNG INTL , TW) observed 0806 UTC 25 April 2019
Temperature: 31.0°C (88°F)
Dewpoint: 20.0°C (68°F) [RH = 52%]
Pressure (altimeter): 29.76 inches Hg (1008.0 mb)
Winds: from the NW (320 degrees) at 13 MPH (11 knots; 5.7 m/s)
Visibility: 6 or more miles (10+ km)
Ceiling: at least 12,000 feet AGL
Clouds: few clouds at 1800 feet AGL
Weather: no significant weather observed at this time

METAR text: RCKH 250800Z 32010KT 290V360 9999 FEW018 31/20 Q1008 NOSIG RMK 32009KT/R09 A2979
Conditions at: RCKH (KAOHSIUNG INTL , TW) observed 0800 UTC 25 April 2019
Temperature: 31.0°C (88°F)
Dewpoint: 20.0°C (68°F) [RH = 52%]
Pressure (altimeter): 29.76 inches Hg (1008.0 mb)
Winds: from the NW (320 degrees) at 12 MPH (10 knots; 5.1 m/s)
Visibility: 6 or more miles (10+ km)
Ceiling: at least 12,000 feet AGL
Clouds: few clouds at 1800 feet AGL
Weather: no significant weather observed at this time

METAR text: RCKH 250730Z 32011KT 280V350 9999 FEW018 31/20 Q1008 NOSIG RMK 32011KT/R09 A2979
Conditions at: RCKH (KAOHSIUNG INTL , TW) observed 0730 UTC 25 April 2019
Temperature: 31.0°C (88°F)
Dewpoint: 20.0°C (68°F) [RH = 52%]
Pressure (altimeter): 29.76 inches Hg (1008.0 mb)
Winds: from the NW (320 degrees) at 13 MPH (11 knots; 5.7 m/s)
Visibility: 6 or more miles (10+ km)
Ceiling: at least 12,000 feet AGL
Clouds: few clouds at 1800 feet AGL
Weather: no significant weather observed at this time

METAR text: RCKH 250700Z 32009KT 290V360 9999 FEW018 31/20 Q1009 NOSIG RMK 31011KT/R09 A2980
Conditions at: RCKH (KAOHSIUNG INTL , TW) observed 0700 UTC 25 April 2019
Temperature: 31.0°C (88°F)
Dewpoint: 20.0°C (68°F) [RH = 52%]
Pressure (altimeter): 29.79 inches Hg (1009.0 mb)
Winds: from the NW (320 degrees) at 10 MPH (9 knots; 4.6 m/s)
Visibility: 6 or more miles (10+ km)
Ceiling: at least 12,000 feet AGL
Clouds: few clouds at 1800 feet AGL
Weather: no significant weather observed at this time

METAR text: RCKH 250630Z 30011KT 260V350 9999 FEW018 31/21 Q1009 NOSIG RMK 29013KT/R09 A2980
Conditions at: RCKH (KAOHSIUNG INTL , TW) observed 0630 UTC 25 April 2019
Temperature: 31.0°C (88°F)
Dewpoint: 21.0°C (70°F) [RH = 55%]
Pressure (altimeter): 29.79 inches Hg (1009.0 mb)
Winds: from the WNW (300 degrees) at 13 MPH (11 knots; 5.7 m/s)
Visibility: 6 or more miles (10+ km)
Ceiling: at least 12,000 feet AGL
Clouds: few clouds at 1800 feet AGL
Weather: no significant weather observed at this time

METAR text: RCKH 250600Z 28011KT 260V320 9999 FEW018 31/20 Q1009 NOSIG RMK 28011KT/R09 A2980
Conditions at: RCKH (KAOHSIUNG INTL , TW) observed 0600 UTC 25 April 2019
Temperature: 31.0°C (88°F)
Dewpoint: 20.0°C (68°F) [RH = 52%]
Pressure (altimeter): 29.79 inches Hg (1009.0 mb)
Winds: from the W (280 degrees) at 13 MPH (11 knots; 5.7 m/s)
Visibility: 6 or more miles (10+ km)
Ceiling: at least 12,000 feet AGL
Clouds: few clouds at 1800 feet AGL
Weather: no significant weather observed at this time

METAR text: RCKH 250530Z 28012KT 9999 FEW018 31/21 Q1009 NOSIG RMK 28011KT/R09 A2981
Conditions at: RCKH (KAOHSIUNG INTL , TW) observed 0530 UTC 25 April 2019
Temperature: 31.0°C (88°F)
Dewpoint: 21.0°C (70°F) [RH = 55%]
Pressure (altimeter): 29.79 inches Hg (1009.0 mb)
Winds: from the W (280 degrees) at 14 MPH (12 knots; 6.2 m/s)
Visibility: 6 or more miles (10+ km)
Ceiling: at least 12,000 feet AGL
Clouds: few clouds at 1800 feet AGL
Weather: no significant weather observed at this time

METAR text: RCKH 250500Z VRB08KT 9999 FEW018 SCT200 31/22 Q1009 NOSIG RMK 27010KT/R09 A2982
Conditions at: RCKH (KAOHSIUNG INTL , TW) observed 0500 UTC 25 April 2019
Temperature: 31.0°C (88°F)
Dewpoint: 22.0°C (72°F) [RH = 59%]
Pressure (altimeter): 29.79 inches Hg (1009.0 mb)
Winds: variable direction winds at 9 MPH (8 knots; 4.1 m/s)
Visibility: 6 or more miles (10+ km)
Ceiling: at least 12,000 feet AGL
Clouds: few clouds at 1800 feet AGL
scattered clouds at 20000 feet AGL
Weather: no significant weather observed at this time

METAR text: RCKH 250430Z 27008KT 240V310 9999 FEW018 SCT200 31/21 Q1010 NOSIG RMK 27010KT/R09 A2983
Conditions at: RCKH (KAOHSIUNG INTL , TW) observed 0430 UTC 25 April 2019
Temperature: 31.0°C (88°F)
Dewpoint: 21.0°C (70°F) [RH = 55%]
Pressure (altimeter): 29.82 inches Hg (1010.0 mb)
Winds: from the W (270 degrees) at 9 MPH (8 knots; 4.1 m/s)
Visibility: 6 or more miles (10+ km)
Ceiling: at least 12,000 feet AGL
Clouds: few clouds at 1800 feet AGL
scattered clouds at 20000 feet AGL
Weather: no significant weather observed at this time

METAR text: RCKH 250400Z 27011KT 9999 FEW018 SCT200 30/21 Q1010 NOSIG RMK 28011KT/R09 A2985
Conditions at: RCKH (KAOHSIUNG INTL , TW) observed 0400 UTC 25 April 2019
Temperature: 30.0°C (86°F)
Dewpoint: 21.0°C (70°F) [RH = 59%]
Pressure (altimeter): 29.82 inches Hg (1010.0 mb)
Winds: from the W (270 degrees) at 13 MPH (11 knots; 5.7 m/s)
Visibility: 6 or more miles (10+ km)
Ceiling: at least 12,000 feet AGL
Clouds: few clouds at 1800 feet AGL
scattered clouds at 20000 feet AGL
Weather: no significant weather observed at this time

METAR text: RCKH 250330Z 28012KT 250V310 9999 FEW018 SCT200 30/23 Q1010 NOSIG RMK 28011KT/R09 A2985
Conditions at: RCKH (KAOHSIUNG INTL , TW) observed 0330 UTC 25 April 2019
Temperature: 30.0°C (86°F)
Dewpoint: 23.0°C (73°F) [RH = 66%]
Pressure (altimeter): 29.82 inches Hg (1010.0 mb)
Winds: from the W (280 degrees) at 14 MPH (12 knots; 6.2 m/s)
Visibility: 6 or more miles (10+ km)
Ceiling: at least 12,000 feet AGL
Clouds: few clouds at 1800 feet AGL
scattered clouds at 20000 feet AGL
Weather: no significant weather observed at this time

METAR text: RCKH 250300Z 26011KT 9999 FEW018 30/21 Q1010 NOSIG RMK 27011KT/R09 A2985
Conditions at: RCKH (KAOHSIUNG INTL , TW) observed 0300 UTC 25 April 2019
Temperature: 30.0°C (86°F)
Dewpoint: 21.0°C (70°F) [RH = 59%]
Pressure (altimeter): 29.82 inches Hg (1010.0 mb)
Winds: from the W (260 degrees) at 13 MPH (11 knots; 5.7 m/s)
Visibility: 6 or more miles (10+ km)
Ceiling: at least 12,000 feet AGL
Clouds: few clouds at 1800 feet AGL
Weather: no significant weather observed at this time

METAR text: RCKH 250230Z 28008KT 240V310 9999 FEW018 31/22 Q1011 NOSIG RMK A2986
Conditions at: RCKH (KAOHSIUNG INTL , TW) observed 0230 UTC 25 April 2019
Temperature: 31.0°C (88°F)
Dewpoint: 22.0°C (72°F) [RH = 59%]
Pressure (altimeter): 29.85 inches Hg (1011.0 mb)
Winds: from the W (280 degrees) at 9 MPH (8 knots; 4.1 m/s)
Visibility: 6 or more miles (10+ km)
Ceiling: at least 12,000 feet AGL
Clouds: few clouds at 1800 feet AGL
Weather: no significant weather observed at this time

METAR text: RCKH 250200Z 25009KT 230V310 9999 FEW018 30/22 Q1010 NOSIG RMK A2985
Conditions at: RCKH (KAOHSIUNG INTL , TW) observed 0200 UTC 25 April 2019
Temperature: 30.0°C (86°F)
Dewpoint: 22.0°C (72°F) [RH = 62%]
Pressure (altimeter): 29.82 inches Hg (1010.0 mb)
Winds: from the WSW (250 degrees) at 10 MPH (9 knots; 4.6 m/s)
Visibility: 6 or more miles (10+ km)
Ceiling: at least 12,000 feet AGL
Clouds: few clouds at 1800 feet AGL
Weather: no significant weather observed at this time

METAR text: RCKH 250130Z 29006KT 230V340 9999 FEW018 SCT030 30/23 Q1010 NOSIG RMK A2985
Conditions at: RCKH (KAOHSIUNG INTL , TW) observed 0130 UTC 25 April 2019
Temperature: 30.0°C (86°F)
Dewpoint: 23.0°C (73°F) [RH = 66%]
Pressure (altimeter): 29.82 inches Hg (1010.0 mb)
Winds: from the WNW (290 degrees) at 7 MPH (6 knots; 3.1 m/s)
Visibility: 6 or more miles (10+ km)
Ceiling: at least 12,000 feet AGL
Clouds: few clouds at 1800 feet AGL
scattered clouds at 3000 feet AGL
Weather: no significant weather observed at this time

METAR text: RCKH 250100Z 05003KT 330V130 9999 FEW016 SCT030 29/23 Q1011 NOSIG RMK A2986
Conditions at: RCKH (KAOHSIUNG INTL , TW) observed 0100 UTC 25 April 2019
Temperature: 29.0°C (84°F)
Dewpoint: 23.0°C (73°F) [RH = 70%]
Pressure (altimeter): 29.85 inches Hg (1011.0 mb)
Winds: from the NE (50 degrees) at 3 MPH (3 knots; 1.5 m/s)
Visibility: 6 or more miles (10+ km)
Ceiling: at least 12,000 feet AGL
Clouds: few clouds at 1600 feet AGL
scattered clouds at 3000 feet AGL
Weather: no significant weather observed at this time

METAR text: RCKH 250030Z VRB02KT 9999 SCT020 29/23 Q1011 NOSIG RMK A2986
Conditions at: RCKH (KAOHSIUNG INTL , TW) observed 0030 UTC 25 April 2019
Temperature: 29.0°C (84°F)
Dewpoint: 23.0°C (73°F) [RH = 70%]
Pressure (altimeter): 29.85 inches Hg (1011.0 mb)
Winds: variable direction winds at 2 MPH (2 knots; 1.0 m/s)
Visibility: 6 or more miles (10+ km)
Ceiling: at least 12,000 feet AGL
Clouds: scattered clouds at 2000 feet AGL
Weather: no significant weather observed at this time

METAR text: RCKH 250000Z 08004KT 050V110 9999 SCT018 28/24 Q1011 NOSIG RMK A2986
Conditions at: RCKH (KAOHSIUNG INTL , TW) observed 0000 UTC 25 April 2019
Temperature: 28.0°C (82°F)
Dewpoint: 24.0°C (75°F) [RH = 79%]
Pressure (altimeter): 29.85 inches Hg (1011.0 mb)
Winds: from the E (80 degrees) at 5 MPH (4 knots; 2.1 m/s)
Visibility: 6 or more miles (10+ km)
Ceiling: at least 12,000 feet AGL
Clouds: scattered clouds at 1800 feet AGL
Weather: no significant weather observed at this time

METAR text: RCKH 242330Z 05005KT 030V090 9999 SCT017 27/24 Q1011 NOSIG RMK A2986
Conditions at: RCKH (KAOHSIUNG INTL , TW) observed 2330 UTC 24 April 2019
Temperature: 27.0°C (81°F)
Dewpoint: 24.0°C (75°F) [RH = 84%]
Pressure (altimeter): 29.85 inches Hg (1011.0 mb)
Winds: from the NE (50 degrees) at 6 MPH (5 knots; 2.6 m/s)
Visibility: 6 or more miles (10+ km)
Ceiling: at least 12,000 feet AGL
Clouds: scattered clouds at 1700 feet AGL
Weather: no significant weather observed at this time

METAR text: RCKH 242300Z 05006KT 9999 FEW012 SCT016 26/24 Q1010 NOSIG RMK A2985
Conditions at: RCKH (KAOHSIUNG INTL , TW) observed 2300 UTC 24 April 2019
Temperature: 26.0°C (79°F)
Dewpoint: 24.0°C (75°F) [RH = 89%]
Pressure (altimeter): 29.82 inches Hg (1010.0 mb)
Winds: from the NE (50 degrees) at 7 MPH (6 knots; 3.1 m/s)
Visibility: 6 or more miles (10+ km)
Ceiling: at least 12,000 feet AGL
Clouds: few clouds at 1200 feet AGL
scattered clouds at 1600 feet AGL
Weather: no significant weather observed at this time

METAR text: RCKH 242230Z 06003KT 8000 FEW010 SCT016 25/24 Q1010 NOSIG RMK A2983
Conditions at: RCKH (KAOHSIUNG INTL , TW) observed 2230 UTC 24 April 2019
Temperature: 25.0°C (77°F)
Dewpoint: 24.0°C (75°F) [RH = 94%]
Pressure (altimeter): 29.82 inches Hg (1010.0 mb)
Winds: from the ENE (60 degrees) at 3 MPH (3 knots; 1.5 m/s)
Visibility: 5 miles ( 8 km)
Ceiling: at least 12,000 feet AGL
Clouds: few clouds at 1000 feet AGL
scattered clouds at 1600 feet AGL
Weather: no significant weather observed at this time

METAR text: RCKH 242200Z 08002KT 7000 FEW012 SCT120 25/24 Q1009 NOSIG RMK A2982
Conditions at: RCKH (KAOHSIUNG INTL , TW) observed 2200 UTC 24 April 2019
Temperature: 25.0°C (77°F)
Dewpoint: 24.0°C (75°F) [RH = 94%]
Pressure (altimeter): 29.79 inches Hg (1009.0 mb)
Winds: from the E (80 degrees) at 2 MPH (2 knots; 1.0 m/s)
Visibility: 4 miles ( 7 km)
Ceiling: at least 12,000 feet AGL
Clouds: few clouds at 1200 feet AGL
scattered clouds at 12000 feet AGL
Weather: no significant weather observed at this time

METAR text: RCKH 242100Z 08002KT 9999 FEW014 SCT025 25/24 Q1009 NOSIG RMK A2980
Conditions at: RCKH (KAOHSIUNG INTL , TW) observed 2100 UTC 24 April 2019
Temperature: 25.0°C (77°F)
Dewpoint: 24.0°C (75°F) [RH = 94%]
Pressure (altimeter): 29.79 inches Hg (1009.0 mb)
Winds: from the E (80 degrees) at 2 MPH (2 knots; 1.0 m/s)
Visibility: 6 or more miles (10+ km)
Ceiling: at least 12,000 feet AGL
Clouds: few clouds at 1400 feet AGL
scattered clouds at 2500 feet AGL
Weather: no significant weather observed at this time

METAR text: RCKH 242000Z 08004KT 9999 FEW014 BKN025 25/24 Q1008 NOSIG RMK A2978
Conditions at: RCKH (KAOHSIUNG INTL , TW) observed 2000 UTC 24 April 2019
Temperature: 25.0°C (77°F)
Dewpoint: 24.0°C (75°F) [RH = 94%]
Pressure (altimeter): 29.76 inches Hg (1008.0 mb)
Winds: from the E (80 degrees) at 5 MPH (4 knots; 2.1 m/s)
Visibility: 6 or more miles (10+ km)
Ceiling: 2500 feet AGL
Clouds: few clouds at 1400 feet AGL
broken clouds at 2500 feet AGL
Weather: no significant weather observed at this time

METAR text: RCKH 241900Z 09004KT 9999 FEW014 SCT020 26/24 Q1008 NOSIG RMK A2979
Conditions at: RCKH (KAOHSIUNG INTL , TW) observed 1900 UTC 24 April 2019
Temperature: 26.0°C (79°F)
Dewpoint: 24.0°C (75°F) [RH = 89%]
Pressure (altimeter): 29.76 inches Hg (1008.0 mb)
Winds: from the E (90 degrees) at 5 MPH (4 knots; 2.1 m/s)
Visibility: 6 or more miles (10+ km)
Ceiling: at least 12,000 feet AGL
Clouds: few clouds at 1400 feet AGL
scattered clouds at 2000 feet AGL
Weather: no significant weather observed at this time

METAR text: RCKH 241800Z 31002KT 9999 FEW014 SCT020 26/24 Q1009 NOSIG RMK A2980
Conditions at: RCKH (KAOHSIUNG INTL , TW) observed 1800 UTC 24 April 2019
Temperature: 26.0°C (79°F)
Dewpoint: 24.0°C (75°F) [RH = 89%]
Pressure (altimeter): 29.79 inches Hg (1009.0 mb)
Winds: from the NW (310 degrees) at 2 MPH (2 knots; 1.0 m/s)
Visibility: 6 or more miles (10+ km)
Ceiling: at least 12,000 feet AGL
Clouds: few clouds at 1400 feet AGL
scattered clouds at 2000 feet AGL
Weather: no significant weather observed at this time

METAR text: RCKH 241700Z 28003KT 250V320 9999 FEW012 BKN016 26/24 Q1010 NOSIG RMK A2983
Conditions at: RCKH (KAOHSIUNG INTL , TW) observed 1700 UTC 24 April 2019
Temperature: 26.0°C (79°F)
Dewpoint: 24.0°C (75°F) [RH = 89%]
Pressure (altimeter): 29.82 inches Hg (1010.0 mb)
Winds: from the W (280 degrees) at 3 MPH (3 knots; 1.5 m/s)
Visibility: 6 or more miles (10+ km)
Ceiling: 1600 feet AGL
Clouds: few clouds at 1200 feet AGL
broken clouds at 1600 feet AGL
Weather: no significant weather observed at this time

METAR text: RCKH 241600Z 28003KT 250V320 9999 FEW012 SCT016 26/24 Q1010 NOSIG RMK A2983
Conditions at: RCKH (KAOHSIUNG INTL , TW) observed 1600 UTC 24 April 2019
Temperature: 26.0°C (79°F)
Dewpoint: 24.0°C (75°F) [RH = 89%]
Pressure (altimeter): 29.82 inches Hg (1010.0 mb)
Winds: from the W (280 degrees) at 3 MPH (3 knots; 1.5 m/s)
Visibility: 6 or more miles (10+ km)
Ceiling: at least 12,000 feet AGL
Clouds: few clouds at 1200 feet AGL
scattered clouds at 1600 feet AGL
Weather: no significant weather observed at this time

Forecast for: RCKH (KAOHSIUNG INTL , TW)
Text: TAF RCKH 252300Z 2600/2706 06005KT 9999 FEW015 BKN032
Forecast period: 0000 to 0100 UTC 26 April 2019
Forecast type: FROM: standard forecast or significant change
Winds: from the ENE (60 degrees) at 6 MPH (5 knots; 2.6 m/s)
Visibility: 6 or more miles 10+ km)
Ceiling: 3200 feet AGL
Clouds: few clouds at 1500 feet AGL
broken clouds at 3200 feet AGL
Weather: no significant weather forecast for this period
Text: BECMG 2601/2603 29008KT
Forecast period: 0100 to 1300 UTC 26 April 2019
Forecast type: BECOMING: Conditions expected to become as follows by 0300 UTC 26 April 2019
Winds: from the WNW (290 degrees) at 9 MPH (8 knots; 4.1 m/s)
Visibility: 6 or more miles 10+ km)
Ceiling: 3200 feet AGL
Clouds: few clouds at 1500 feet AGL
broken clouds at 3200 feet AGL
Weather: no significant weather forecast for this period
Text: TEMPO 2607/2613 35009KT 4000 SHRA FEW010 FEW015CB BKN018 BKN040
Forecast period: 0700 to 1300 UTC 26 April 2019
Forecast type: TEMPORARY: The following changes expected for less than half the time period
Winds: from the N (350 degrees) at 10 MPH (9 knots; 4.6 m/s)
Visibility: 2.49 miles (4.01 km)
Ceiling: 1800 feet AGL
Clouds: few clouds at 1000 feet AGL
few clouds at 1500 feet AGL
broken clouds at 1800 feet AGL
Weather: SHRA  (rain showers)
Text: BECMG 2613/2615 36005KT
Forecast period: 1300 UTC 26 April 2019 to 0600 UTC 27 April 2019
Forecast type: BECOMING: Conditions expected to become as follows by 1500 UTC 26 April 2019
Winds: from the N (360 degrees) at 6 MPH (5 knots; 2.6 m/s)
Visibility: 6 or more miles 10+ km)
Ceiling: 3200 feet AGL
Clouds: few clouds at 1500 feet AGL
broken clouds at 3200 feet AGL
Weather: no significant weather forecast for this period
Text: TEMPO 2618/2624 06005KT 5000 BR FEW010 BKN022
Forecast period: 1800 UTC 26 April 2019 to 0000 UTC 27 April 2019
Forecast type: TEMPORARY: The following changes expected for less than half the time period
Winds: from the ENE (60 degrees) at 6 MPH (5 knots; 2.6 m/s)
Visibility: 3 miles (5 km)
Ceiling: 2200 feet AGL
Clouds: few clouds at 1000 feet AGL
broken clouds at 2200 feet AGL
Weather: BR  (mist)